Time;durP1;ratioP1;P1;durP2;ratioP2;P2;SDS_P1;SDS_P2;PMS_P1;PMS_P2;Temp;Humidity;BMP_temperature;BMP_pressure;BME280_temperature;BME280_humidity;BME280_pressure;Samples;Min_cycle;Max_cycle;Signal;HPM_P1;HPM_P2
2022/04/20 00:00:22;;;;;;;7.83;3.03;;;11.40;15.90;;;;;;5029043;28;20257;-70
2022/04/20 00:02:47;;;;;;;5.07;2.47;;;11.40;15.30;;;;;;5045207;28;20656;-71
2022/04/20 00:05:13;;;;;;;4.43;3.17;;;11.30;14.60;;;;;;5029149;28;20205;-70
2022/04/20 00:07:39;;;;;;;3.43;2.67;;;11.30;16.20;;;;;;5030503;28;20308;-70
2022/04/20 00:10:05;;;;;;;2.83;2.50;;;11.30;15.80;;;;;;5039178;28;20184;-70
2022/04/20 00:12:31;;;;;;;3.63;2.53;;;11.20;15.70;;;;;;5031667;28;20226;-70
2022/04/20 00:14:56;;;;;;;3.97;2.77;;;11.20;16.60;;;;;;5028382;28;20488;-70
2022/04/20 00:17:22;;;;;;;7.30;2.50;;;11.20;16.40;;;;;;5028552;28;20202;-70
2022/04/20 00:19:48;;;;;;;7.60;2.60;;;11.10;15.80;;;;;;5026644;28;20177;-70
2022/04/20 00:22:13;;;;;;;2.93;2.40;;;11.10;16.80;;;;;;5027292;28;20189;-71
2022/04/20 00:24:39;;;;;;;2.80;2.30;;;11.00;17.70;;;;;;5029909;28;20926;-70
2022/04/20 00:27:05;;;;;;;8.03;2.73;;;11.10;16.90;;;;;;5029035;28;20201;-71
2022/04/20 00:29:30;;;;;;;6.73;2.70;;;11.00;18.30;;;;;;5028754;28;20182;-71
2022/04/20 00:31:56;;;;;;;2.60;2.40;;;11.00;18.20;;;;;;5028945;28;20216;-71
2022/04/20 00:34:22;;;;;;;4.07;2.53;;;10.90;18.80;;;;;;5028819;28;20408;-71
2022/04/20 00:36:52;;;;;;;2.50;2.30;;;10.90;18.20;;;;;;5029324;28;20244;-71
2022/04/20 00:39:17;;;;;;;3.50;2.63;;;10.80;19.60;;;;;;5027125;28;20424;-71
2022/04/20 00:41:44;;;;;;;3.97;2.90;;;10.80;18.90;;;;;;5044864;28;20821;-70
2022/04/20 00:44:10;;;;;;;4.17;2.80;;;10.80;18.40;;;;;;5027115;28;20181;-71
2022/04/20 00:46:37;;;;;;;4.97;2.80;;;10.80;18.80;;;;;;5027554;28;20475;-71
2022/04/20 00:49:04;;;;;;;6.30;2.80;;;10.70;19.00;;;;;;5028948;28;20427;-70
2022/04/20 00:51:30;;;;;;;3.50;2.57;;;10.70;19.40;;;;;;5028033;28;20431;-71
2022/04/20 00:54:00;;;;;;;7.10;3.00;;;10.70;19.80;;;;;;5029037;28;20464;-71
2022/04/20 00:56:27;;;;;;;3.00;2.63;;;10.60;20.40;;;;;;5028370;28;20186;-71
2022/04/20 00:58:53;;;;;;;2.90;2.70;;;10.60;20.90;;;;;;5025685;28;20839;-71
2022/04/20 01:01:19;;;;;;;5.23;3.10;;;10.50;21.00;;;;;;5032039;28;20947;-71
2022/04/20 01:03:45;;;;;;;4.50;3.33;;;10.50;21.70;;;;;;5037627;28;20424;-71
2022/04/20 01:06:10;;;;;;;3.30;2.70;;;10.50;21.90;;;;;;5028938;28;20735;-71
2022/04/20 01:08:36;;;;;;;4.70;2.70;;;10.40;21.90;;;;;;5027385;28;20174;-71
2022/04/20 01:11:02;;;;;;;20.63;3.03;;;10.40;23.50;;;;;;5026348;28;20238;-71
2022/04/20 01:13:28;;;;;;;4.13;2.70;;;10.40;23.40;;;;;;5027242;28;20478;-71
2022/04/20 01:15:54;;;;;;;2.60;2.40;;;10.30;23.50;;;;;;5027938;28;21112;-71
2022/04/20 01:18:20;;;;;;;3.40;2.67;;;10.30;24.90;;;;;;5026475;28;20466;-71
2022/04/20 01:20:45;;;;;;;11.97;2.80;;;10.20;24.40;;;;;;5028250;28;20200;-71
2022/04/20 01:23:11;;;;;;;2.73;2.53;;;10.20;25.00;;;;;;5032658;28;20204;-71
2022/04/20 01:25:38;;;;;;;3.47;2.73;;;10.10;25.70;;;;;;5037898;28;20182;-71
2022/04/20 01:28:05;;;;;;;4.90;3.37;;;10.10;26.40;;;;;;5028227;28;20608;-72
2022/04/20 01:30:31;;;;;;;2.83;2.63;;;10.30;26.20;;;;;;5027140;28;20471;-71
2022/04/20 01:32:57;;;;;;;4.00;2.60;;;10.10;26.80;;;;;;5028674;28;20467;-72
2022/04/20 01:35:23;;;;;;;3.77;2.70;;;10.10;27.20;;;;;;5027693;28;20281;-72
2022/04/20 01:37:50;;;;;;;5.47;3.10;;;10.00;27.10;;;;;;5026678;28;20217;-71
2022/04/20 01:40:15;;;;;;;4.70;2.80;;;10.00;27.60;;;;;;5035902;28;20424;-72
2022/04/20 01:42:41;;;;;;;5.87;2.90;;;10.00;28.10;;;;;;5024646;28;21212;-71
2022/04/20 01:45:07;;;;;;;3.40;2.70;;;10.00;28.10;;;;;;5026978;28;20186;-71
2022/04/20 01:47:32;;;;;;;4.07;2.80;;;9.90;29.10;;;;;;5028349;28;20257;-72
2022/04/20 01:49:58;;;;;;;4.70;2.70;;;9.90;29.40;;;;;;5027476;28;20679;-71
2022/04/20 01:52:24;;;;;;;3.70;2.70;;;9.90;30.20;;;;;;5026623;28;20265;-72
2022/04/20 01:54:49;;;;;;;4.00;2.90;;;9.90;30.20;;;;;;5026253;28;20190;-71
2022/04/20 01:57:15;;;;;;;3.17;2.73;;;9.80;31.40;;;;;;5025449;28;20221;-71
2022/04/20 01:59:40;;;;;;;3.60;3.00;;;9.80;32.40;;;;;;5026658;28;20401;-71
2022/04/20 02:04:50;;;;;;;12.63;3.10;;;9.70;34.20;;;;;;5027048;28;20220;-71
2022/04/20 02:07:16;;;;;;;4.90;3.10;;;9.70;32.10;;;;;;5027579;28;20472;-71
2022/04/20 02:09:42;;;;;;;3.90;3.00;;;9.70;33.80;;;;;;5035337;28;20217;-71
2022/04/20 02:12:08;;;;;;;3.13;2.83;;;9.60;35.00;;;;;;5033047;28;20895;-71
2022/04/20 02:14:34;;;;;;;4.17;2.90;;;9.70;33.90;;;;;;5027423;28;20274;-71
2022/04/20 02:16:59;;;;;;;3.33;3.00;;;9.60;37.00;;;;;;5025854;28;20448;-72
2022/04/20 02:19:25;;;;;;;4.73;2.87;;;9.60;38.10;;;;;;5026684;28;20643;-71
2022/04/20 02:21:51;;;;;;;5.67;2.87;;;9.60;37.30;;;;;;5025374;28;20277;-71
2022/04/20 02:24:16;;;;;;;4.10;2.63;;;9.50;38.30;;;;;;5024748;28;20240;-72
2022/04/20 02:26:42;;;;;;;4.60;3.80;;;9.50;38.20;;;;;;5024547;28;20197;-71
2022/04/20 02:29:07;;;;;;;3.37;3.07;;;9.50;38.30;;;;;;5025400;28;20174;-71
2022/04/20 02:31:33;;;;;;;3.83;3.27;;;9.40;38.50;;;;;;5026593;28;20218;-71
2022/04/20 02:33:59;;;;;;;5.90;3.00;;;9.40;38.30;;;;;;5025752;28;20297;-71
2022/04/20 02:36:25;;;;;;;2.97;2.67;;;9.40;38.30;;;;;;5026469;28;20198;-71
2022/04/20 02:38:51;;;;;;;6.20;2.87;;;9.40;38.40;;;;;;5024465;28;20170;-71
2022/04/20 02:41:17;;;;;;;3.10;2.80;;;9.40;38.30;;;;;;5025807;28;20519;-71
2022/04/20 02:43:43;;;;;;;4.03;2.80;;;9.30;38.30;;;;;;5026204;28;20459;-71
2022/04/20 02:46:08;;;;;;;6.53;3.13;;;9.30;38.20;;;;;;5025083;28;20935;-71
2022/04/20 02:48:35;;;;;;;4.40;3.20;;;9.30;38.30;;;;;;5025768;28;20184;-71
2022/04/20 02:51:00;;;;;;;4.57;2.90;;;9.30;38.30;;;;;;5018692;28;20194;-73
2022/04/20 02:53:26;;;;;;;5.77;2.90;;;9.30;38.20;;;;;;5025644;28;20463;-72
2022/04/20 02:55:51;;;;;;;3.20;2.90;;;9.20;38.10;;;;;;5025285;28;20205;-71
2022/04/20 02:58:17;;;;;;;4.37;3.20;;;9.20;38.10;;;;;;5026281;28;20520;-71
2022/04/20 03:00:43;;;;;;;4.13;3.17;;;9.20;38.20;;;;;;5026666;28;20177;-72
2022/04/20 03:03:09;;;;;;;6.50;3.10;;;9.20;38.20;;;;;;5026277;28;20178;-71
2022/04/20 03:05:34;;;;;;;4.57;3.10;;;9.10;38.20;;;;;;5031262;28;20185;-71
2022/04/20 03:08:00;;;;;;;3.63;3.27;;;9.10;38.10;;;;;;5030532;28;20363;-71
2022/04/20 03:10:26;;;;;;;6.03;3.00;;;9.10;38.10;;;;;;5030258;28;20300;-72
2022/04/20 03:12:52;;;;;;;6.90;3.47;;;9.10;38.10;;;;;;5027734;28;20195;-71
2022/04/20 03:15:17;;;;;;;4.37;3.50;;;9.10;38.10;;;;;;5030121;28;20640;-71
2022/04/20 03:17:43;;;;;;;4.80;3.23;;;9.10;38.10;;;;;;5030268;28;20203;-71
2022/04/20 03:20:10;;;;;;;4.23;3.37;;;9.10;38.20;;;;;;5030173;28;20208;-71
2022/04/20 03:22:35;;;;;;;5.70;3.10;;;9.40;38.50;;;;;;5027765;28;20186;-71
2022/04/20 03:25:01;;;;;;;3.83;3.10;;;9.10;38.10;;;;;;5030876;28;20416;-71
2022/04/20 03:27:27;;;;;;;4.20;3.03;;;9.10;38.10;;;;;;5029658;28;20213;-72
2022/04/20 03:29:52;;;;;;;5.23;3.60;;;9.10;38.20;;;;;;5030371;28;20182;-71
2022/04/20 03:32:19;;;;;;;3.83;3.43;;;9.00;38.10;;;;;;5030167;28;20660;-70
2022/04/20 03:34:44;;;;;;;3.73;3.10;;;9.10;38.30;;;;;;5030712;28;20649;-72
2022/04/20 03:37:10;;;;;;;4.33;2.80;;;9.00;38.20;;;;;;5029609;28;20555;-72
2022/04/20 03:39:37;;;;;;;7.20;2.90;;;9.00;38.10;;;;;;5030680;28;20178;-71
2022/04/20 03:42:03;;;;;;;8.10;3.30;;;8.90;38.10;;;;;;5041596;28;20197;-71
2022/04/20 03:44:29;;;;;;;4.23;3.33;;;8.90;38.10;;;;;;5029891;28;20948;-71
2022/04/20 03:46:55;;;;;;;6.37;3.60;;;8.70;37.90;;;;;;5029836;28;20539;-71
2022/04/20 03:49:21;;;;;;;4.10;2.90;;;8.70;38.10;;;;;;5045968;28;20209;-71
2022/04/20 03:51:46;;;;;;;3.57;3.20;;;8.70;39.10;;;;;;5025254;28;20178;-71
2022/04/20 03:54:15;;;;;;;6.30;3.53;;;8.70;38.90;;;;;;5028237;28;20241;-71
2022/04/20 03:59:25;;;;;;;6.77;3.30;;;8.50;43.20;;;;;;5029954;28;20846;-71
2022/04/20 04:01:51;;;;;;;4.27;3.10;;;8.40;47.50;;;;;;5028378;28;20448;-71
2022/04/20 04:04:18;;;;;;;4.27;3.30;;;8.30;48.00;;;;;;5028141;28;20182;-71
2022/04/20 04:06:43;;;;;;;5.57;3.20;;;8.20;49.90;;;;;;5028818;28;20435;-71
2022/04/20 04:09:09;;;;;;;3.83;3.27;;;8.00;51.80;;;;;;5030498;28;20413;-71
2022/04/20 04:11:34;;;;;;;3.40;3.10;;;7.90;54.80;;;;;;5040622;28;20182;-71
2022/04/20 04:14:00;;;;;;;3.80;3.13;;;7.80;55.70;;;;;;5030423;28;20212;-71
2022/04/20 04:16:25;;;;;;;5.73;3.43;;;7.90;57.50;;;;;;5027198;28;20202;-72
2022/04/20 04:18:51;;;;;;;5.90;3.87;;;7.90;57.30;;;;;;5030617;28;20206;-71
2022/04/20 04:21:17;;;;;;;4.20;3.40;;;7.90;56.80;;;;;;5027842;28;20257;-72
2022/04/20 04:23:42;;;;;;;5.80;3.60;;;7.90;58.30;;;;;;5028904;28;20277;-71
2022/04/20 04:26:08;;;;;;;6.13;3.40;;;7.90;59.10;;;;;;5026374;28;20261;-71
2022/04/20 04:28:34;;;;;;;4.40;3.40;;;7.90;62.60;;;;;;5041559;28;20173;-72
2022/04/20 04:31:00;;;;;;;5.73;3.40;;;7.90;61.40;;;;;;5029044;28;20731;-71
2022/04/20 04:33:25;;;;;;;4.10;3.30;;;7.90;59.70;;;;;;5028851;28;20190;-71
2022/04/20 04:35:51;;;;;;;6.43;4.00;;;7.90;60.50;;;;;;5027604;28;20237;-71
2022/04/20 04:38:16;;;;;;;6.37;4.10;;;7.90;65.20;;;;;;5026360;28;20570;-71
2022/04/20 04:40:42;;;;;;;6.17;3.97;;;7.90;64.60;;;;;;5036551;28;20920;-70
2022/04/20 04:43:07;;;;;;;7.77;4.50;;;7.90;65.30;;;;;;5027471;28;20174;-71
2022/04/20 04:51:01;;;;;;;4.60;3.93;;;8.20;61.40;;;;;;5019168;28;20439;-71
2022/04/20 04:53:27;;;;;;;7.53;3.57;;;8.30;58.00;;;;;;5027493;28;20448;-71
2022/04/20 04:55:52;;;;;;;5.90;4.03;;;8.30;58.80;;;;;;5026380;28;20246;-71
2022/04/20 04:58:18;;;;;;;5.90;4.00;;;8.40;57.50;;;;;;5028326;28;20679;-72
2022/04/20 05:00:43;;;;;;;4.00;3.60;;;8.50;56.40;;;;;;5027529;28;20253;-71
2022/04/20 05:03:09;;;;;;;5.93;3.80;;;8.60;58.20;;;;;;5029018;28;20172;-71
2022/04/20 05:05:35;;;;;;;5.50;3.67;;;8.60;54.50;;;;;;5026405;28;20272;-71
2022/04/20 05:08:00;;;;;;;9.43;4.00;;;8.70;54.60;;;;;;5028041;28;20193;-71
2022/04/20 05:10:26;;;;;;;4.80;3.80;;;8.70;54.40;;;;;;5033667;28;20170;-72
2022/04/20 05:12:52;;;;;;;9.73;3.80;;;8.70;52.70;;;;;;5025285;28;20636;-71
2022/04/20 05:15:17;;;;;;;8.07;4.17;;;8.70;51.50;;;;;;5026082;28;20251;-72
2022/04/20 05:17:43;;;;;;;3.80;3.30;;;8.80;51.20;;;;;;5028281;28;20221;-71
2022/04/20 05:20:09;;;;;;;5.93;3.27;;;8.90;51.30;;;;;;5028091;28;20673;-71
2022/04/20 05:22:37;;;;;;;5.73;3.70;;;8.90;52.10;;;;;;5026414;28;20201;-71
2022/04/20 05:25:03;;;;;;;7.33;3.63;;;9.00;49.70;;;;;;5028508;28;20423;-71
2022/04/20 05:27:28;;;;;;;4.23;3.70;;;9.00;49.90;;;;;;5027544;28;20842;-71
2022/04/20 05:29:54;;;;;;;5.57;3.43;;;9.10;50.20;;;;;;5027116;28;20451;-72
2022/04/20 05:32:19;;;;;;;9.30;3.30;;;9.10;49.20;;;;;;5027630;28;20181;-71
2022/04/20 05:34:45;;;;;;;6.43;4.10;;;9.10;49.80;;;;;;5026868;28;20209;-71
2022/04/20 05:42:39;;;;;;;4.90;3.40;;;9.30;48.10;;;;;;5047355;28;20426;-71
2022/04/20 05:45:05;;;;;;;3.90;3.50;;;9.30;47.20;;;;;;5040023;28;20417;-71
2022/04/20 05:47:32;;;;;;;3.97;3.40;;;9.30;47.30;;;;;;5028537;28;20189;-72
2022/04/20 05:49:57;;;;;;;4.30;3.20;;;9.30;46.50;;;;;;5028612;28;20410;-71
2022/04/20 05:52:23;;;;;;;4.40;3.60;;;9.40;46.70;;;;;;5026654;28;20421;-71
2022/04/20 05:54:48;;;;;;;9.50;3.80;;;9.50;46.30;;;;;;5024962;28;20570;-71
2022/04/20 05:57:14;;;;;;;6.50;3.53;;;9.50;46.20;;;;;;5026543;28;20228;-72
2022/04/20 05:59:39;;;;;;;4.87;3.90;;;9.50;45.20;;;;;;5026766;28;20204;-72
2022/04/20 06:02:05;;;;;;;5.73;3.80;;;9.60;43.60;;;;;;5026595;28;20596;-71
2022/04/20 06:04:31;;;;;;;6.10;4.13;;;9.70;43.50;;;;;;5026509;28;20733;-71
2022/04/20 06:06:56;;;;;;;5.77;4.30;;;9.80;42.60;;;;;;5027164;28;20445;-71
2022/04/20 06:09:22;;;;;;;7.03;4.10;;;10.00;40.20;;;;;;5035320;28;20192;-71
2022/04/20 06:11:48;;;;;;;6.10;3.70;;;10.10;38.20;;;;;;5033934;28;20185;-71
2022/04/20 06:14:13;;;;;;;6.17;3.70;;;10.20;38.40;;;;;;5024906;28;20615;-71
2022/04/20 06:16:39;;;;;;;3.70;3.27;;;10.40;38.40;;;;;;5024133;28;20285;-71
2022/04/20 06:19:05;;;;;;;25.63;4.47;;;10.50;38.40;;;;;;5026710;28;20177;-71
2022/04/20 06:21:30;;;;;;;5.90;3.50;;;10.70;38.60;;;;;;5023743;28;20571;-71
2022/04/20 06:23:56;;;;;;;4.60;3.63;;;10.90;38.70;;;;;;5026288;28;20730;-72
2022/04/20 06:26:21;;;;;;;4.27;3.40;;;11.00;38.80;;;;;;5024924;28;20524;-72
2022/04/20 06:28:47;;;;;;;5.60;3.43;;;11.20;39.00;;;;;;5027714;28;20166;-72
2022/04/20 06:31:12;;;;;;;4.50;3.60;;;11.30;39.00;;;;;;5026429;28;20174;-72
2022/04/20 06:33:38;;;;;;;5.10;3.43;;;11.20;38.90;;;;;;5026548;28;20201;-72
2022/04/20 06:36:03;;;;;;;5.63;3.90;;;11.40;39.20;;;;;;5026298;28;20209;-72
2022/04/20 06:38:29;;;;;;;7.67;3.80;;;11.50;41.80;;;;;;5024146;28;20277;-71
2022/04/20 06:40:54;;;;;;;6.40;3.77;;;11.70;39.40;;;;;;5036862;28;20628;-71
2022/04/20 06:43:21;;;;;;;8.53;3.80;;;11.80;39.30;;;;;;5027823;28;20173;-72
2022/04/20 06:45:46;;;;;;;4.47;3.70;;;11.90;39.50;;;;;;5026300;28;20205;-72
2022/04/20 06:48:12;;;;;;;4.77;3.80;;;11.90;39.50;;;;;;5027220;28;20784;-72
2022/04/20 06:50:40;;;;;;;7.23;3.50;;;11.90;39.60;;;;;;5027266;28;20185;-72
2022/04/20 06:58:38;;;;;;;5.77;4.10;;;12.30;39.70;;;;;;5026128;28;20435;-70
2022/04/20 07:01:05;;;;;;;13.37;5.00;;;12.40;39.90;;;;;;5021052;28;20420;-70
2022/04/20 07:03:31;;;;;;;4.20;3.70;;;12.60;40.10;;;;;;5026190;28;20420;-70
2022/04/20 07:05:58;;;;;;;4.20;3.80;;;12.70;40.10;;;;;;5024968;28;20542;-71
2022/04/20 07:08:25;;;;;;;4.63;3.60;;;12.90;40.30;;;;;;5025098;28;20444;-72
2022/04/20 07:10:50;;;;;;;7.43;3.93;;;12.80;40.30;;;;;;5023454;28;20937;-71
2022/04/20 07:13:16;;;;;;;4.03;3.67;;;13.00;37.60;;;;;;5026798;28;20868;-70
2022/04/20 07:15:42;;;;;;;4.30;3.77;;;13.20;36.10;;;;;;5035195;28;20213;-71
2022/04/20 07:18:08;;;;;;;4.37;3.70;;;13.40;31.70;;;;;;5026561;28;20225;-71
2022/04/20 07:20:33;;;;;;;5.60;3.87;;;13.40;30.20;;;;;;5026449;28;20182;-70
2022/04/20 07:22:59;;;;;;;5.47;3.77;;;13.50;30.90;;;;;;5032206;28;20203;-70
2022/04/20 07:25:25;;;;;;;4.07;3.67;;;13.60;29.40;;;;;;5039729;28;20181;-70
2022/04/20 07:27:51;;;;;;;4.77;3.40;;;13.70;29.90;;;;;;5025498;28;20198;-71
2022/04/20 07:30:18;;;;;;;5.23;3.63;;;13.80;27.70;;;;;;5023152;28;20428;-71
2022/04/20 07:32:44;;;;;;;5.23;3.60;;;14.00;27.70;;;;;;5029361;28;20447;-71
2022/04/20 07:35:10;;;;;;;4.10;3.47;;;14.20;26.60;;;;;;5025779;28;20464;-70
2022/04/20 07:37:37;;;;;;;4.43;3.47;;;14.40;28.40;;;;;;5026687;28;20610;-72
2022/04/20 07:40:03;;;;;;;4.37;3.40;;;14.90;26.00;;;;;;5039793;28;20439;-72
2022/04/20 07:42:29;;;;;;;3.70;3.40;;;15.60;21.80;;;;;;5025726;28;20425;-72
2022/04/20 07:44:56;;;;;;;6.40;4.10;;;16.20;18.20;;;;;;5017106;28;20190;-71
2022/04/20 07:47:27;;;;;;;5.43;4.30;;;17.20;14.20;;;;;;5031535;28;20221;-72
2022/04/20 07:52:42;;;;;;;7.13;4.87;;;19.50;9.40;;;;;;5026998;28;20438;-72
2022/04/20 07:55:20;;;;;;;9.07;4.80;;;20.60;4.90;;;;;;5028183;28;20494;-72
2022/04/20 07:57:45;;;;;;;6.27;5.67;;;21.40;1.00;;;;;;5028185;28;20455;-73
2022/04/20 08:00:14;;;;;;;8.93;4.80;;;21.90;1.00;;;;;;5029099;28;20492;-71
2022/04/20 08:02:40;;;;;;;5.57;5.00;;;22.60;1.00;;;;;;5029298;28;20173;-72
2022/04/20 08:05:06;;;;;;;5.07;4.50;;;23.30;1.00;;;;;;5029669;28;20424;-71
2022/04/20 08:07:32;;;;;;;9.80;4.77;;;23.70;1.00;;;;;;5028688;28;20200;-72
2022/04/20 08:09:58;;;;;;;5.83;4.37;;;24.00;1.00;;;;;;5037298;28;20181;-72
2022/04/20 08:12:28;;;;;;;6.70;4.40;;;24.10;1.00;;;;;;5028013;28;20251;-72
2022/04/20 08:14:54;;;;;;;8.37;4.60;;;23.60;1.00;;;;;;5029156;28;20201;-72
2022/04/20 08:17:19;;;;;;;4.83;4.13;;;23.30;1.00;;;;;;5028947;28;20193;-73
2022/04/20 08:19:45;;;;;;;5.50;4.10;;;23.10;1.00;;;;;;5039653;28;20196;-72
2022/04/20 08:22:12;;;;;;;6.73;4.27;;;23.00;1.00;;;;;;5028615;28;20204;-72
2022/04/20 08:24:38;;;;;;;5.93;4.20;;;23.10;1.00;;;;;;5028842;28;20185;-72
2022/04/20 08:27:03;;;;;;;5.10;3.60;;;23.80;1.00;;;;;;5028216;28;20188;-72
2022/04/20 08:29:29;;;;;;;4.63;3.57;;;24.20;1.00;;;;;;5025684;28;20192;-71
2022/04/20 08:31:55;;;;;;;5.50;3.90;;;25.20;1.00;;;;;;5030374;28;20186;-72
2022/04/20 08:34:20;;;;;;;4.70;3.67;;;25.60;1.00;;;;;;5034731;28;20561;-72
2022/04/20 08:36:46;;;;;;;4.40;3.93;;;25.10;1.00;;;;;;5028642;28;20285;-72
2022/04/20 08:39:11;;;;;;;4.70;4.00;;;24.80;1.00;;;;;;5027717;28;20392;-72
2022/04/20 08:41:37;;;;;;;4.43;3.47;;;24.70;1.00;;;;;;5027049;28;20181;-72
2022/04/20 08:44:04;;;;;;;4.97;4.00;;;24.40;1.00;;;;;;5028015;28;20241;-72
2022/04/20 08:46:34;;;;;;;6.90;4.43;;;24.50;1.00;;;;;;5029059;28;20197;-72
2022/04/20 08:48:59;;;;;;;4.17;3.70;;;24.80;1.00;;;;;;5035461;28;20178;-73
2022/04/20 08:52:37;;;;;;;4.20;3.40;;;25.40;1.00;;;;;;5028288;28;20925;-72
2022/04/20 08:54:11;;;;;;;5.68;3.92;;;25.80;1.00;;;;;;5026367;28;20192;-72
2022/04/20 08:59:23;;;;;;;4.05;3.42;;;26.20;1.00;;;;;;5029471;28;20266;-74
2022/04/20 09:01:49;;;;;;;4.32;3.50;;;28.30;1.00;;;;;;5022839;28;20257;-76
2022/04/20 09:04:15;;;;;;;4.90;4.20;;;26.70;1.00;;;;;;5024889;28;20265;-72
2022/04/20 09:06:46;;;;;;;4.57;3.80;;;27.10;1.00;;;;;;5035456;28;20617;-72
2022/04/20 09:09:12;;;;;;;5.28;3.92;;;27.40;1.00;;;;;;5028049;28;20184;-73
2022/04/20 09:11:37;;;;;;;9.25;4.85;;;27.60;1.00;;;;;;5025050;28;20184;-72
2022/04/20 09:14:13;;;;;;;4.85;4.03;;;27.60;1.00;;;;;;5022892;28;20570;-72
2022/04/20 09:16:40;;;;;;;6.18;4.85;;;27.90;1.00;;;;;;5027351;28;20201;-73
2022/04/20 09:19:06;;;;;;;7.50;4.38;;;28.30;1.00;;;;;;5025918;28;20625;-73
2022/04/20 09:21:34;;;;;;;5.22;4.22;;;28.10;1.00;;;;;;5026865;28;20185;-73
2022/04/20 09:24:09;;;;;;;4.60;4.10;;;28.30;1.00;;;;;;5028888;28;20167;-73
2022/04/20 09:26:52;;;;;;;5.05;4.38;;;29.10;1.00;;;;;;5027167;28;20189;-73
2022/04/20 09:29:18;;;;;;;5.00;4.30;;;29.50;1.00;;;;;;5034126;28;20245;-73
2022/04/20 09:31:46;;;;;;;4.63;3.95;;;29.30;1.00;;;;;;5028908;28;20196;-73
2022/04/20 09:37:17;;;;;;;10.43;3.92;;;29.90;1.00;;;;;;5028531;28;20740;-73
2022/04/20 09:39:46;;;;;;;5.07;3.97;;;30.20;1.00;;;;;;5026870;28;20426;-73
2022/04/20 09:42:12;;;;;;;4.28;3.60;;;30.40;1.00;;;;;;5023068;28;20177;-73
2022/04/20 09:44:45;;;;;;;4.10;3.70;;;29.90;1.00;;;;;;5028469;28;20202;-73
2022/04/20 09:50:00;;;;;;;4.65;3.83;;;28.30;1.00;;;;;;5036680;28;20192;-73
2022/04/20 09:52:47;;;;;;;5.18;3.40;;;29.50;1.00;;;;;;5027615;28;20178;-72
2022/04/20 09:55:33;;;;;;;4.60;3.38;;;30.20;1.00;;;;;;5021004;28;20205;-73
2022/04/20 09:58:18;;;;;;;3.85;2.90;;;30.70;1.00;;;;;;5032258;28;20193;-74
2022/04/20 10:00:49;;;;;;;4.50;3.42;;;30.80;1.00;;;;;;5023550;28;20169;-73
2022/04/20 10:03:28;;;;;;;4.75;3.10;;;31.00;1.00;;;;;;5027139;28;20431;-73
2022/04/20 10:05:55;;;;;;;4.63;3.33;;;31.20;1.00;;;;;;5032673;28;20222;-73
2022/04/20 10:08:20;;;;;;;4.57;3.40;;;31.20;1.00;;;;;;5025732;28;20235;-74
2022/04/20 10:10:51;;;;;;;5.82;3.60;;;31.40;1.00;;;;;;5026449;28;20234;-74
2022/04/20 10:13:17;;;;;;;4.90;3.40;;;31.50;1.00;;;;;;5039002;28;20230;-74
2022/04/20 10:16:05;;;;;;;5.15;3.85;;;30.80;1.00;;;;;;5028347;28;20215;-73
2022/04/20 10:18:34;;;;;;;5.38;4.03;;;30.30;1.00;;;;;;5025848;28;20232;-74
2022/04/20 10:21:01;;;;;;;4.22;3.58;;;29.60;1.00;;;;;;5029681;28;20480;-74
2022/04/20 10:23:29;;;;;;;3.95;3.28;;;30.20;1.00;;;;;;5026151;28;20173;-73
2022/04/20 10:25:56;;;;;;;4.55;3.40;;;30.00;1.00;;;;;;5025611;28;20184;-74
2022/04/20 10:28:40;;;;;;;4.38;3.22;;;30.10;1.00;;;;;;5035757;28;20219;-72
2022/04/20 10:31:12;;;;;;;4.35;3.50;;;30.90;1.00;;;;;;5031251;28;20548;-73
2022/04/20 10:33:41;;;;;;;4.15;3.30;;;31.20;1.00;;;;;;5039136;28;20180;-74
2022/04/20 10:36:11;;;;;;;3.75;3.38;;;30.90;1.00;;;;;;5035757;28;20189;-73
2022/04/20 10:38:38;;;;;;;5.05;3.80;;;31.70;1.00;;;;;;5025305;28;20296;-74
2022/04/20 10:41:17;;;;;;;4.78;3.92;;;32.10;1.00;;;;;;5031058;28;20177;-73
2022/04/20 10:43:43;;;;;;;5.13;3.90;;;31.80;1.00;;;;;;5026436;28;20276;-73
2022/04/20 10:46:17;;;;;;;6.68;3.90;;;30.30;1.00;;;;;;5031472;28;20180;-73
2022/04/20 10:48:52;;;;;;;4.55;4.03;;;29.90;1.00;;;;;;5025084;28;20297;-73
2022/04/20 10:51:22;;;;;;;4.80;4.30;;;30.20;1.00;;;;;;5023594;28;20176;-73
2022/04/20 10:53:48;;;;;;;5.95;3.90;;;30.20;1.00;;;;;;5026327;28;20178;-73
2022/04/20 10:56:15;;;;;;;4.60;4.10;;;30.80;1.00;;;;;;5025542;28;20255;-73
2022/04/20 10:58:51;;;;;;;4.72;3.97;;;31.20;1.00;;;;;;5033033;28;20553;-74
2022/04/20 11:01:16;;;;;;;7.22;4.07;;;30.80;1.00;;;;;;5026379;28;20200;-75
2022/04/20 11:04:02;;;;;;;5.95;4.20;;;30.30;1.00;;;;;;5028121;28;20173;-74
2022/04/20 11:06:29;;;;;;;6.95;4.30;;;30.20;1.00;;;;;;5026687;28;20742;-74
2022/04/20 11:09:00;;;;;;;7.15;3.95;;;30.50;1.00;;;;;;5025107;28;20189;-74
2022/04/20 11:20:15;;;;;;;5.22;4.07;;;29.90;1.00;;;;;;5026853;28;20627;-74
2022/04/20 11:22:46;;;;;;;4.70;4.20;;;30.40;1.00;;;;;;5027142;28;20212;-74
2022/04/20 11:25:12;;;;;;;5.45;3.95;;;30.10;1.00;;;;;;5027647;28;20185;-74
2022/04/20 11:27:37;;;;;;;6.00;4.75;;;30.30;1.00;;;;;;5030773;28;20216;-74
2022/04/20 11:30:07;;;;;;;4.35;3.95;;;30.00;1.00;;;;;;5032904;28;20671;-74
2022/04/20 11:32:32;;;;;;;4.90;4.40;;;30.00;1.00;;;;;;5038225;28;20187;-74
2022/04/20 11:35:11;;;;;;;4.53;3.97;;;30.10;1.00;;;;;;5033486;28;20200;-74
2022/04/20 11:37:39;;;;;;;4.70;4.05;;;30.00;1.00;;;;;;5026455;28;20199;-74
2022/04/20 11:40:11;;;;;;;5.63;4.15;;;30.10;1.00;;;;;;5045814;28;20188;-74
2022/04/20 11:42:36;;;;;;;6.43;4.57;;;30.20;1.00;;;;;;5031588;28;20182;-74
2022/04/20 11:45:02;;;;;;;4.80;3.90;;;30.30;1.00;;;;;;5030928;28;20235;-74
2022/04/20 11:47:28;;;;;;;5.63;4.00;;;30.20;1.00;;;;;;5030085;28;20702;-74
2022/04/20 11:49:56;;;;;;;4.93;4.03;;;30.00;1.00;;;;;;5030834;28;20193;-74
2022/04/20 11:52:21;;;;;;;6.57;4.30;;;30.70;1.00;;;;;;5032932;28;20177;-74
2022/04/20 11:54:47;;;;;;;8.07;4.90;;;30.80;1.00;;;;;;5026710;28;20258;-75
2022/04/20 11:57:15;;;;;;;5.43;4.35;;;30.80;1.00;;;;;;5037067;28;20208;-75
2022/04/20 11:59:49;;;;;;;4.88;4.38;;;31.80;1.00;;;;;;5033186;28;20712;-74
2022/04/20 12:02:16;;;;;;;4.88;4.38;;;30.90;1.00;;;;;;5034029;28;20274;-75
2022/04/20 12:04:42;;;;;;;6.13;4.40;;;30.50;1.00;;;;;;5028359;28;20181;-74
2022/04/20 12:07:08;;;;;;;7.22;4.80;;;30.80;1.00;;;;;;5029178;28;20293;-74
2022/04/20 12:09:36;;;;;;;6.60;4.65;;;30.80;1.00;;;;;;5034242;28;20688;-74
2022/04/20 12:12:08;;;;;;;7.55;4.85;;;31.10;1.00;;;;;;5037363;28;20284;-74
2022/04/20 12:14:38;;;;;;;10.70;4.75;;;31.40;1.00;;;;;;5030484;28;20197;-75
2022/04/20 12:17:07;;;;;;;4.90;4.40;;;31.30;1.00;;;;;;5034091;28;20215;-75
2022/04/20 12:19:33;;;;;;;6.15;4.32;;;30.70;1.00;;;;;;5029876;28;20208;-74
2022/04/20 12:22:09;;;;;;;6.90;4.40;;;31.20;1.00;;;;;;5029252;28;20224;-75
2022/04/20 12:24:37;;;;;;;10.02;4.75;;;32.80;1.00;;;;;;5029265;28;20251;-75
2022/04/20 12:27:03;;;;;;;6.10;4.78;;;34.10;1.00;;;;;;5037078;28;20212;-74
2022/04/20 12:29:33;;;;;;;5.70;4.40;;;34.20;1.00;;;;;;5046343;28;20181;-75
2022/04/20 12:32:00;;;;;;;4.68;4.20;;;33.30;1.00;;;;;;5050949;28;20728;-75
2022/04/20 12:34:30;;;;;;;8.00;4.00;;;32.40;1.00;;;;;;5049128;28;20196;-75
2022/04/20 12:37:03;;;;;;;4.50;3.72;;;32.60;1.00;;;;;;5030552;28;20194;-75
2022/04/20 12:39:44;;;;;;;5.25;4.00;;;33.60;1.00;;;;;;5032960;28;20517;-75
2022/04/20 12:42:14;;;;;;;4.68;4.18;;;33.00;1.00;;;;;;5018410;28;20173;-73
2022/04/20 12:44:52;;;;;;;5.53;4.20;;;32.80;1.00;;;;;;5029497;28;20648;-73
2022/04/20 12:47:21;;;;;;;6.28;3.70;;;33.50;1.00;;;;;;5030081;28;20201;-73
2022/04/20 12:49:51;;;;;;;6.30;3.92;;;32.90;1.00;;;;;;5030757;28;20169;-73
2022/04/20 12:52:22;;;;;;;6.47;4.35;;;32.40;1.00;;;;;;5030126;28;20165;-74
2022/04/20 12:54:57;;;;;;;5.28;4.00;;;32.00;1.00;;;;;;5026584;28;20221;-73
2022/04/20 13:03:05;;;;;;;8.98;4.10;;;31.90;1.00;;;;;;5025293;28;20232;-73
2022/04/20 13:05:32;;;;;;;6.70;4.47;;;33.00;1.00;;;;;;5026496;28;20196;-73
2022/04/20 13:07:59;;;;;;;5.50;3.88;;;33.90;1.00;;;;;;5028872;28;20635;-73
2022/04/20 13:10:25;;;;;;;5.00;4.00;;;33.30;1.00;;;;;;5026999;28;20181;-73
2022/04/20 13:12:54;;;;;;;5.55;3.70;;;32.90;1.00;;;;;;5026080;28;20188;-73
2022/04/20 13:15:21;;;;;;;5.70;4.10;;;32.60;1.00;;;;;;5028088;28;20205;-73
2022/04/20 13:17:47;;;;;;;6.07;4.57;;;32.30;1.00;;;;;;5028314;28;20698;-73
2022/04/20 13:20:14;;;;;;;7.88;4.32;;;32.80;1.00;;;;;;5023997;28;20185;-73
2022/04/20 13:22:39;;;;;;;4.63;3.75;;;32.60;1.00;;;;;;5027558;28;20189;-74
2022/04/20 13:27:56;;;;;;;4.93;3.85;;;31.80;1.00;;;;;;5038862;28;20231;-73
2022/04/20 13:30:22;;;;;;;4.28;3.80;;;31.70;1.00;;;;;;5032813;28;20170;-73
2022/04/20 13:32:51;;;;;;;6.57;3.83;;;31.60;1.00;;;;;;5026177;28;20177;-73
2022/04/20 13:35:17;;;;;;;5.68;3.45;;;31.80;1.00;;;;;;5026398;28;20605;-73
2022/04/20 13:37:43;;;;;;;4.20;3.80;;;31.90;1.00;;;;;;5028071;28;20551;-73
2022/04/20 13:40:10;;;;;;;6.85;4.07;;;31.70;1.00;;;;;;5025319;28;20181;-73
2022/04/20 13:42:37;;;;;;;4.82;3.65;;;31.30;1.00;;;;;;5020275;28;20675;-73